Main page


Airports :

Churchill, Manitoba, Canada

Churchill Airport

latitude: 58-44N, longitude: 094-04W, elevation: 28 m

Current weather observation

The report was made 26 minutes ago, at 23:00 UTC
Wind 8 kt from the North
Temperature -22°C
Humidity 84%
Pressure 1046 hPa
Visibility: 24.1 km
Few clouds at a height of 1100 ft

METAR: CYYQ 222300Z 35008KT 15SM FEW011 M22/M24 A3089 RMK SC1 SC TR SLP466

Time: 18:26 (23:26 UTC)


The report was made 5 hours and 48 minutes ago, at 17:38 UTC
Forecast valid from 22 at 18 UTC to 23 at 18 UTC
Wind 12 kt from the North/Northwest
Visibility: 10 km
Few clouds at a height of 1000 ft
From 23 at 0000 UTC
Wind 6 kt from the North/Northeast
Visibility: 10 km
Clear sky
From 23 at 0700 UTC
Wind 8 kt from the South
Visibility: 10 km
Clear sky

TAF: CYYQ 221738Z 2218/2318 34012KT P6SM FEW010 FM230000 02006KT P6SM SKC FM230700 17008KT P6SM SKC RMK NXT FCST BY 230000Z

Weather observations and forecasts of more than 4000 airports (METAR and TAF reports).

The available stations are represented by yellow and red dots on the map.

Hover mouse over dot to see the name of the station.

Then click to see weather observations and forecasts.

To change the map : click on the green buttons with a black cross to zoom in, on the green button with a dash to zoom out, or on the green arrows for adjacent maps.